Baltimore, Maryland
Current Conditions -  °F | °C
As of 1:54 AM on Wednesday 26 Nov 2014 (Local Time) from KBWI Reporting Station
Overcast Overcast  
Wind Chill: 45°   Ceiling: 7500
Heat Index: 45°   Visibility: 10mi
Dew Point: 36°   Wind: 0mph
Humidity: 71%   Direction: NA
Pressure: 30.16"   Gusts: NA
Location:  39.29°N, 76.61°W
Report Text: KBWI 260654Z 00000KT 10SM BKN075 OVC100 07/02 A3016 RMK AO2 SLP212 T00720022 $
Loading
Personal Weather Stations






























Interactive Weather Map New forecast layout! Learn more

10-Day Weather Forecast

Advertisements
Track Severe Weather on mobile